Lindsay, Canada
Current Conditions -  °F | °C
As of 10:00 AM on Friday 19 Dec 2014 (Local Time) from CYPQ Reporting Station
Overcast Overcast  
Wind Chill: 10°   Ceiling: 9200
Heat Index: 21°   Visibility: 9mi
Dew Point: 16°   Wind: 10mph
Humidity: 80%   Direction: 320°NW
Pressure: 30.17"   Gusts: NA
Location:  44.35°N, 78.74°W
Report Text: CYPQ 191500Z AUTO 32009KT 9SM SCT060 OVC092 M06/M09 A3017 RMK SLP227
Loading
Personal Weather Stations






























Interactive Weather Map New forecast layout! Learn more

10-Day Weather Forecast

Advertisements
Track Severe Weather on mobile